This is the latest recevied weather packets stored in our database for station/object KK7KHO. If no packets are shown the sender has not sent any weather packets the latest 10 day(s).
| Time | Temp. | Humidity | Pressure | Rain* | Wind** | Luminosity | Snow |
|---|---|---|---|---|---|---|---|
| 1777052779 | 13.33° C | 80% | 1020.1 hPa | 0 mm | - | 524 W/m² | - |
| 1777052478 | 13.33° C | 79% | 1020.2 hPa | 0 mm | - | 515 W/m² | - |
| 1777052174 | 12.78° C | 79% | 1020.2 hPa | 0 mm | - | 506 W/m² | - |
| 1777051874 | 12.78° C | 80% | 1020.3 hPa | 0 mm | - | 495 W/m² | - |
| 1777051568 | 12.22° C | 83% | 1020.3 hPa | 0 mm | - | 483 W/m² | - |
| 1777051264 | 12.22° C | 83% | 1020.4 hPa | 0 mm | - | 477 W/m² | - |
| 1777050959 | 12.22° C | 83% | 1020.4 hPa | 0 mm | - | 466 W/m² | - |
| 1777050655 | 12.22° C | 82% | 1020.4 hPa | 0 mm | - | 454 W/m² | - |
| 1777050350 | 11.67° C | 85% | 1020.3 hPa | 0 mm | - | 432 W/m² | - |
| 1777050044 | 11.67° C | 86% | 1020.6 hPa | 0 mm | - | 367 W/m² | - |
| 1777049738 | 11.67° C | 84% | 1020.4 hPa | 0 mm | - | 425 W/m² | - |
| 1777049436 | 11.67° C | 86% | 1020.5 hPa | 0 mm | - | 415 W/m² | - |
| 1777049133 | 11.67° C | 85% | 1020.6 hPa | 0 mm | - | 399 W/m² | - |
| 1777048828 | 11.67° C | 85% | 1020.6 hPa | 0 mm | - | 387 W/m² | - |
| 1777048524 | 11.11° C | 85% | 1020.7 hPa | 0 mm | - | 376 W/m² | - |
| 1777048223 | 11.11° C | 86% | 1020.7 hPa | 0 mm | - | 363 W/m² | - |
| 1777047918 | 10.56° C | 87% | 1020.9 hPa | 0 mm | - | 351 W/m² | - |
| 1777047609 | 10.56° C | 88% | 1021 hPa | 0 mm | - | 355 W/m² | - |
| 1777047305 | 10.56° C | 89% | 1021 hPa | 0 mm | - | 140 W/m² | - |
| 1777047001 | 11.11° C | 86% | 1021.1 hPa | 0 mm | - | 314 W/m² | - |
| 1777046698 | 11.11° C | 86% | 1021.2 hPa | 0 mm | - | 288 W/m² | - |
| 1777046392 | 11.11° C | 85% | 1021.1 hPa | 0 mm | - | 256 W/m² | - |
| 1777046089 | 11.11° C | 86% | 1021.1 hPa | 0 mm | - | 232 W/m² | - |
| 1777045785 | 11.11° C | 85% | 1021.2 hPa | 0 mm | - | 209 W/m² | - |
| 1777045481 | 11.11° C | 85% | 1021.2 hPa | 0 mm | - | 183 W/m² | - |
* Rain latest hour (hover to see other rain measurements)
** Current wind speed in m/s (hover to see current wind gust speed)